Time;durP1;ratioP1;P1;durP2;ratioP2;P2;SDS_P1;SDS_P2;PMS_P1;PMS_P2;Temp;Humidity;BMP_temperature;BMP_pressure;BME280_temperature;BME280_humidity;BME280_pressure;Samples;Min_cycle;Max_cycle;Signal;HPM_P1;HPM_P2
2023/12/08 00:00:19;;;;;;;20.55;10.45;;;19.80;56.60;;;;;;5072020;28;20029;-54
2023/12/08 00:02:44;;;;;;;17.98;9.95;;;19.80;56.60;;;;;;5068531;28;20035;-54
2023/12/08 00:05:10;;;;;;;17.77;9.23;;;19.80;56.40;;;;;;5069317;28;20029;-54
2023/12/08 00:07:36;;;;;;;19.35;10.05;;;19.70;56.30;;;;;;5066116;28;20107;-49
2023/12/08 00:10:03;;;;;;;20.55;9.75;;;19.80;56.50;;;;;;5070740;28;20029;-53
2023/12/08 00:12:29;;;;;;;19.52;9.48;;;19.70;56.30;;;;;;5062522;28;20514;-52
2023/12/08 00:14:54;;;;;;;21.95;9.20;;;19.70;56.30;;;;;;5072581;28;20025;-53
2023/12/08 00:17:20;;;;;;;15.35;9.25;;;19.70;56.40;;;;;;5072051;28;20021;-54
2023/12/08 00:19:46;;;;;;;16.33;8.95;;;19.70;56.30;;;;;;5072514;28;20020;-53
2023/12/08 00:22:12;;;;;;;16.45;9.70;;;19.70;56.70;;;;;;5072513;28;20498;-56
2023/12/08 00:24:38;;;;;;;18.27;9.48;;;19.70;56.80;;;;;;5072103;28;20492;-52
2023/12/08 00:27:04;;;;;;;14.52;8.57;;;19.70;57.10;;;;;;5066643;28;20110;-53
2023/12/08 00:29:29;;;;;;;15.20;9.32;;;19.70;56.40;;;;;;5071644;28;20032;-55
2023/12/08 00:31:55;;;;;;;14.38;8.20;;;19.70;56.50;;;;;;5069181;28;20029;-49
2023/12/08 00:34:21;;;;;;;17.23;8.65;;;19.70;56.40;;;;;;5060847;28;20109;-48
2023/12/08 00:36:47;;;;;;;17.70;8.52;;;19.70;56.60;;;;;;5063203;28;20036;-50
2023/12/08 00:39:13;;;;;;;13.95;8.73;;;19.70;56.20;;;;;;5066370;28;20478;-54
2023/12/08 00:41:38;;;;;;;15.95;8.20;;;19.70;56.20;;;;;;5066556;28;20111;-56
2023/12/08 00:44:04;;;;;;;16.65;7.80;;;19.70;56.20;;;;;;5072148;28;20032;-55
2023/12/08 00:46:31;;;;;;;13.88;8.38;;;19.70;56.20;;;;;;5067195;28;20025;-49
2023/12/08 00:48:56;;;;;;;16.75;7.80;;;19.70;56.20;;;;;;5065388;28;20116;-53
2023/12/08 00:51:22;;;;;;;13.90;8.27;;;19.70;56.20;;;;;;5069118;28;20115;-55
2023/12/08 00:53:48;;;;;;;15.73;8.52;;;19.70;56.10;;;;;;5068161;28;20400;-50
2023/12/08 00:56:14;;;;;;;11.35;7.30;;;19.70;56.20;;;;;;5070184;28;20024;-53
2023/12/08 00:58:40;;;;;;;14.68;8.18;;;19.70;56.10;;;;;;5062437;28;20023;-52
2023/12/08 01:01:06;;;;;;;16.10;8.57;;;19.70;56.30;;;;;;5063725;28;20028;-54
2023/12/08 01:03:31;;;;;;;17.35;9.13;;;19.70;56.30;;;;;;5068831;28;20384;-47
2023/12/08 01:05:57;;;;;;;14.02;8.75;;;19.70;56.50;;;;;;5066711;28;20024;-53
2023/12/08 01:08:23;;;;;;;15.68;8.68;;;19.70;56.30;;;;;;5061490;28;20047;-50
2023/12/08 01:10:49;;;;;;;12.95;8.05;;;19.70;56.20;;;;;;5070677;28;20027;-52
2023/12/08 01:13:14;;;;;;;14.15;8.20;;;19.70;56.30;;;;;;5070551;28;20028;-53
2023/12/08 01:15:40;;;;;;;14.75;8.48;;;19.60;56.20;;;;;;5068681;28;20457;-52
2023/12/08 01:18:06;;;;;;;12.32;8.13;;;19.60;56.30;;;;;;5069055;28;20032;-53
2023/12/08 01:20:32;;;;;;;15.02;8.00;;;19.70;56.60;;;;;;5064457;28;20081;-53
2023/12/08 01:22:57;;;;;;;14.52;8.27;;;19.60;56.30;;;;;;5071545;28;20028;-50
2023/12/08 01:25:23;;;;;;;13.82;8.05;;;19.60;56.60;;;;;;5071082;28;20031;-46
2023/12/08 01:27:49;;;;;;;15.82;8.15;;;19.60;56.70;;;;;;5068542;28;20032;-54
2023/12/08 01:30:14;;;;;;;14.45;8.35;;;19.60;56.60;;;;;;5061787;28;20020;-53
2023/12/08 01:32:40;;;;;;;13.70;7.80;;;19.60;56.90;;;;;;5069414;28;20021;-49
2023/12/08 01:35:06;;;;;;;14.90;7.72;;;19.60;56.70;;;;;;5069029;28;20544;-49
2023/12/08 01:37:32;;;;;;;13.25;8.15;;;19.60;56.60;;;;;;5066503;28;20031;-48
2023/12/08 01:39:58;;;;;;;15.48;8.15;;;19.60;56.90;;;;;;5070046;28;20025;-52
2023/12/08 01:42:24;;;;;;;12.88;7.45;;;19.60;56.50;;;;;;5069162;28;20044;-47
2023/12/08 01:44:49;;;;;;;12.02;7.10;;;19.60;56.80;;;;;;5070835;28;20060;-49
2023/12/08 01:47:16;;;;;;;14.35;7.70;;;19.60;56.60;;;;;;5067048;28;20077;-54
2023/12/08 01:49:42;;;;;;;15.95;7.72;;;19.60;57.70;;;;;;5061876;28;20025;-53
2023/12/08 01:52:09;;;;;;;13.43;7.78;;;19.60;57.10;;;;;;5071386;28;20028;-51
2023/12/08 01:54:35;;;;;;;11.48;7.45;;;19.60;56.80;;;;;;5066556;28;20119;-55
2023/12/08 01:57:02;;;;;;;13.25;7.05;;;19.60;56.80;;;;;;5069737;28;20024;-54
2023/12/08 01:59:30;;;;;;;13.93;7.85;;;19.60;56.50;;;;;;5068978;28;20031;-54
2023/12/08 02:01:56;;;;;;;12.65;7.32;;;19.60;56.60;;;;;;5064453;28;20034;-55
2023/12/08 02:04:21;;;;;;;13.90;8.07;;;19.60;56.80;;;;;;5069377;28;20096;-56
2023/12/08 02:06:47;;;;;;;13.23;8.13;;;19.50;57.20;;;;;;5066677;28;20013;-53
2023/12/08 02:09:13;;;;;;;12.15;6.85;;;19.60;56.70;;;;;;5068129;28;20056;-54
2023/12/08 02:11:39;;;;;;;12.93;7.22;;;19.60;56.70;;;;;;5066225;28;20040;-53
2023/12/08 02:14:05;;;;;;;11.15;7.20;;;19.60;56.80;;;;;;5067071;28;20462;-55
2023/12/08 02:16:43;;;;;;;12.80;7.53;;;19.60;56.90;;;;;;5069024;28;20112;-55
2023/12/08 02:19:12;;;;;;;13.32;7.47;;;19.50;56.70;;;;;;5074115;28;20024;-54
2023/12/08 02:21:38;;;;;;;12.70;7.03;;;19.60;56.80;;;;;;5071072;28;20028;-54
2023/12/08 02:24:04;;;;;;;17.08;7.65;;;19.50;57.40;;;;;;5074419;28;20146;-48
2023/12/08 02:26:30;;;;;;;14.43;6.32;;;19.60;56.10;;;;;;5069775;28;20040;-47
2023/12/08 02:28:56;;;;;;;11.27;6.80;;;19.50;56.90;;;;;;5065520;28;20029;-48
2023/12/08 02:31:29;;;;;;;13.35;7.50;;;19.60;56.80;;;;;;5065448;28;20126;-50
2023/12/08 02:33:56;;;;;;;16.08;7.63;;;19.50;57.10;;;;;;5074775;28;20028;-53
2023/12/08 02:36:24;;;;;;;12.50;7.78;;;19.50;56.90;;;;;;5068715;28;20024;-52
2023/12/08 02:38:52;;;;;;;22.50;7.13;;;19.50;57.30;;;;;;5074480;28;20031;-54
2023/12/08 02:41:18;;;;;;;12.25;7.13;;;19.50;57.00;;;;;;5072746;28;20094;-55
2023/12/08 02:43:43;;;;;;;12.55;6.88;;;19.50;57.20;;;;;;5072093;28;20050;-53
2023/12/08 02:46:09;;;;;;;12.60;8.00;;;19.40;57.20;;;;;;5072029;28;20028;-48
2023/12/08 02:48:35;;;;;;;16.63;7.65;;;19.40;57.00;;;;;;5074261;28;20197;-49
2023/12/08 02:51:03;;;;;;;12.55;6.90;;;19.40;57.10;;;;;;5073624;28;20028;-50
2023/12/08 02:53:28;;;;;;;11.70;7.30;;;19.40;56.80;;;;;;5073299;28;20036;-48
2023/12/08 02:55:54;;;;;;;11.65;7.35;;;19.40;56.90;;;;;;5066006;28;20028;-47
2023/12/08 02:58:20;;;;;;;13.90;7.07;;;19.40;56.50;;;;;;5066989;28;20028;-52
2023/12/08 03:00:46;;;;;;;13.00;6.82;;;19.50;57.40;;;;;;5073374;28;20017;-55
2023/12/08 03:03:11;;;;;;;12.73;6.40;;;19.40;56.80;;;;;;5072736;28;20017;-49
2023/12/08 03:05:37;;;;;;;13.43;7.20;;;19.50;56.90;;;;;;5068302;28;20090;-51
2023/12/08 03:08:03;;;;;;;10.60;6.78;;;19.50;56.60;;;;;;5067421;28;20028;-53
2023/12/08 03:10:29;;;;;;;12.07;7.65;;;19.50;56.80;;;;;;5068978;28;20447;-53
2023/12/08 03:12:55;;;;;;;11.32;6.95;;;19.50;56.70;;;;;;5074017;28;20390;-50
2023/12/08 03:15:20;;;;;;;11.23;6.88;;;19.50;56.80;;;;;;5070018;28;20024;-51
2023/12/08 03:17:46;;;;;;;13.77;6.90;;;19.50;56.80;;;;;;5071872;28;20028;-54
2023/12/08 03:20:12;;;;;;;11.60;7.25;;;19.50;57.10;;;;;;5073037;28;20016;-55
2023/12/08 03:22:38;;;;;;;16.77;7.40;;;19.50;56.50;;;;;;5073787;28;20445;-53
2023/12/08 03:25:04;;;;;;;11.98;7.10;;;19.40;56.60;;;;;;5065029;28;20017;-54
2023/12/08 03:27:30;;;;;;;11.95;7.22;;;19.40;56.50;;;;;;5062574;28;20021;-50
2023/12/08 03:29:56;;;;;;;13.07;7.47;;;19.50;56.80;;;;;;5068633;28;20037;-47
2023/12/08 03:32:21;;;;;;;15.55;7.97;;;19.40;56.60;;;;;;5069703;28;20621;-52
2023/12/08 03:34:48;;;;;;;12.80;6.88;;;19.40;56.60;;;;;;5060532;28;20420;-52
2023/12/08 03:37:13;;;;;;;14.98;7.03;;;19.40;56.70;;;;;;5073180;28;20020;-54
2023/12/08 03:39:39;;;;;;;15.55;6.93;;;19.40;56.60;;;;;;5071567;28;20027;-49
2023/12/08 03:42:05;;;;;;;14.30;7.00;;;19.40;56.70;;;;;;5070686;28;20082;-47
2023/12/08 03:44:31;;;;;;;11.05;6.55;;;19.40;56.30;;;;;;5068939;28;20029;-52
2023/12/08 03:46:56;;;;;;;11.25;6.90;;;19.40;57.10;;;;;;5068403;28;20110;-51
2023/12/08 03:49:22;;;;;;;11.73;6.68;;;19.40;56.30;;;;;;5066337;28;20057;-53
2023/12/08 03:51:48;;;;;;;12.07;7.03;;;19.40;56.60;;;;;;5069735;28;20520;-53
2023/12/08 03:54:14;;;;;;;11.55;6.75;;;19.40;56.80;;;;;;5068430;28;20480;-46
2023/12/08 03:56:39;;;;;;;10.85;6.55;;;19.40;56.40;;;;;;5071801;28;20037;-50
2023/12/08 03:59:05;;;;;;;10.10;6.63;;;19.40;56.90;;;;;;5066418;28;20024;-54
2023/12/08 04:01:31;;;;;;;11.25;6.78;;;19.40;56.90;;;;;;5066057;28;20074;-53
2023/12/08 04:03:57;;;;;;;10.63;6.97;;;19.40;56.50;;;;;;5058851;28;20392;-49
2023/12/08 04:06:23;;;;;;;12.48;6.93;;;19.40;56.60;;;;;;5064926;28;20568;-48
2023/12/08 04:08:48;;;;;;;11.45;6.47;;;19.40;56.80;;;;;;5071992;28;20028;-49
2023/12/08 04:11:14;;;;;;;10.02;6.20;;;19.40;56.40;;;;;;5065407;28;20738;-53
2023/12/08 04:13:40;;;;;;;13.85;6.50;;;19.40;56.60;;;;;;5071866;28;20501;-54
2023/12/08 04:16:06;;;;;;;11.35;7.25;;;19.40;56.80;;;;;;5066674;28;20480;-53
2023/12/08 04:18:34;;;;;;;10.30;6.68;;;19.40;56.90;;;;;;5072597;28;20124;-53
2023/12/08 04:20:59;;;;;;;11.38;6.75;;;19.30;56.90;;;;;;5069985;28;20078;-54
2023/12/08 04:23:25;;;;;;;12.15;7.40;;;19.30;56.30;;;;;;5071281;28;20028;-54
2023/12/08 04:25:51;;;;;;;10.52;6.38;;;19.30;56.50;;;;;;5062335;28;20104;-53
2023/12/08 04:28:17;;;;;;;9.43;6.47;;;19.30;56.80;;;;;;5069481;28;20028;-53
2023/12/08 04:30:42;;;;;;;10.88;6.80;;;19.30;56.50;;;;;;5069921;28;20035;-52
2023/12/08 04:33:09;;;;;;;10.15;6.45;;;19.30;56.90;;;;;;5064789;28;20024;-54
2023/12/08 04:35:35;;;;;;;13.15;6.63;;;19.30;56.70;;;;;;5068417;28;20055;-54
2023/12/08 04:38:01;;;;;;;10.25;6.35;;;19.30;56.80;;;;;;5067055;28;20073;-51
2023/12/08 04:40:26;;;;;;;9.48;6.00;;;19.30;56.30;;;;;;5069598;28;20434;-51
2023/12/08 04:42:52;;;;;;;11.57;6.43;;;19.30;56.50;;;;;;5063449;28;20048;-53
2023/12/08 04:45:18;;;;;;;9.75;6.88;;;19.30;56.30;;;;;;5071060;28;20024;-54
2023/12/08 04:47:44;;;;;;;12.10;6.72;;;19.30;56.40;;;;;;5068172;28;20027;-54
2023/12/08 04:50:09;;;;;;;10.35;5.88;;;19.30;56.40;;;;;;5059991;28;20025;-50
2023/12/08 04:52:35;;;;;;;10.15;6.13;;;19.30;56.50;;;;;;5061819;28;20025;-54
2023/12/08 04:55:01;;;;;;;11.02;6.20;;;19.30;56.60;;;;;;5066778;28;20515;-56
2023/12/08 04:57:27;;;;;;;10.15;6.15;;;19.30;56.10;;;;;;5067058;28;20021;-54
2023/12/08 04:59:53;;;;;;;8.57;5.68;;;19.40;56.80;;;;;;5064346;28;20051;-49
2023/12/08 05:02:18;;;;;;;10.30;6.30;;;19.40;56.00;;;;;;5070938;28;20527;-47
2023/12/08 05:04:44;;;;;;;10.05;6.38;;;19.40;56.40;;;;;;5067075;28;20030;-52
2023/12/08 05:07:10;;;;;;;10.18;5.82;;;19.40;56.20;;;;;;5066033;28;20028;-52
2023/12/08 05:09:36;;;;;;;9.50;6.15;;;19.40;56.80;;;;;;5068396;28;20051;-52
2023/12/08 05:12:02;;;;;;;12.30;6.47;;;19.40;56.10;;;;;;5070879;28;20032;-55
2023/12/08 05:14:27;;;;;;;10.38;6.03;;;19.40;56.20;;;;;;5071716;28;20075;-55
2023/12/08 05:16:53;;;;;;;10.30;6.93;;;19.40;56.40;;;;;;5070263;28;20036;-55
2023/12/08 05:19:19;;;;;;;10.27;6.75;;;19.40;56.60;;;;;;5068565;28;20027;-53
2023/12/08 05:21:45;;;;;;;9.52;5.75;;;19.40;56.40;;;;;;5062852;28;20056;-52
2023/12/08 05:24:11;;;;;;;10.68;6.32;;;19.40;55.90;;;;;;5068562;28;20025;-52
2023/12/08 05:26:37;;;;;;;10.32;6.68;;;19.40;56.50;;;;;;5067204;28;20025;-54
2023/12/08 05:29:02;;;;;;;10.50;6.25;;;19.40;56.60;;;;;;5063167;28;20052;-55
2023/12/08 05:31:28;;;;;;;10.50;5.53;;;19.40;55.80;;;;;;5068279;28;20064;-53
2023/12/08 05:33:54;;;;;;;13.05;6.15;;;19.40;55.80;;;;;;5066200;28;20035;-51
2023/12/08 05:36:20;;;;;;;9.90;6.50;;;19.50;56.30;;;;;;5070257;28;20175;-49
2023/12/08 05:38:45;;;;;;;11.32;5.78;;;19.50;56.00;;;;;;5071404;28;20419;-53
2023/12/08 05:41:11;;;;;;;10.50;6.10;;;19.50;55.90;;;;;;5071523;28;20476;-48
2023/12/08 05:43:37;;;;;;;12.95;6.90;;;19.50;55.40;;;;;;5071518;28;20021;-53
2023/12/08 05:46:03;;;;;;;10.15;6.00;;;19.50;55.80;;;;;;5071194;28;20055;-52
2023/12/08 05:48:29;;;;;;;14.05;7.20;;;19.50;56.50;;;;;;5068625;28;20032;-47
2023/12/08 05:50:55;;;;;;;29.58;11.25;;;19.50;56.50;;;;;;5065062;28;20021;-49
2023/12/08 05:53:21;;;;;;;19.45;10.68;;;19.50;57.60;;;;;;5071180;28;20130;-51
2023/12/08 05:55:46;;;;;;;15.55;8.32;;;19.50;56.70;;;;;;5070696;28;20036;-52
2023/12/08 05:58:12;;;;;;;15.30;8.57;;;19.50;56.30;;;;;;5071037;28;20518;-50
2023/12/08 06:00:38;;;;;;;17.83;8.50;;;19.50;56.20;;;;;;5069872;28;20103;-54
2023/12/08 06:03:04;;;;;;;14.95;7.88;;;19.50;57.00;;;;;;5063276;28;20083;-51
2023/12/08 06:05:29;;;;;;;18.05;8.60;;;19.50;57.00;;;;;;5067873;28;20027;-53
2023/12/08 06:07:55;;;;;;;15.93;8.57;;;19.50;57.40;;;;;;5070997;28;20023;-53
2023/12/08 06:10:23;;;;;;;14.38;7.18;;;19.50;57.30;;;;;;5070954;28;20063;-51
2023/12/08 06:12:48;;;;;;;15.60;7.28;;;19.50;57.70;;;;;;5071046;28;20020;-52
2023/12/08 06:15:14;;;;;;;20.40;10.05;;;19.50;57.60;;;;;;5070876;28;20017;-52
2023/12/08 06:17:40;;;;;;;19.63;8.95;;;19.60;59.00;;;;;;5071004;28;20074;-47
2023/12/08 06:20:10;;;;;;;28.13;10.00;;;19.60;58.10;;;;;;5068699;28;20178;-53
2023/12/08 06:22:39;;;;;;;15.68;8.43;;;19.60;60.30;;;;;;5068952;28;20025;-50
2023/12/08 06:25:05;;;;;;;16.73;8.07;;;19.60;59.70;;;;;;5070851;28;20522;-51
2023/12/08 06:27:31;;;;;;;21.83;8.88;;;19.60;60.10;;;;;;5070558;28;20121;-53
2023/12/08 06:29:57;;;;;;;20.05;8.73;;;19.50;60.80;;;;;;5070929;28;20095;-52
2023/12/08 06:32:25;;;;;;;15.35;7.32;;;19.50;59.50;;;;;;5070990;28;20094;-48
2023/12/08 06:34:51;;;;;;;22.50;7.72;;;19.50;59.10;;;;;;5094336;22;20072;-49
2023/12/08 06:37:17;;;;;;;17.73;8.15;;;19.50;58.90;;;;;;5070024;28;20087;-46
2023/12/08 06:39:42;;;;;;;20.67;7.28;;;19.50;59.10;;;;;;5071138;28;20094;-51
2023/12/08 06:42:08;;;;;;;14.93;7.53;;;19.50;59.00;;;;;;5070910;28;20472;-49
2023/12/08 06:44:34;;;;;;;17.23;6.97;;;19.50;59.10;;;;;;5070627;28;20077;-50
2023/12/08 06:47:00;;;;;;;17.45;7.13;;;19.50;59.10;;;;;;5070355;28;20445;-46
2023/12/08 06:49:26;;;;;;;24.15;7.93;;;19.40;59.00;;;;;;5070596;28;20538;-53
2023/12/08 06:51:51;;;;;;;16.27;7.68;;;19.40;59.50;;;;;;5070643;28;20031;-54
2023/12/08 06:54:18;;;;;;;12.35;6.63;;;19.40;59.20;;;;;;5070592;28;20024;-47
2023/12/08 06:56:44;;;;;;;14.30;7.32;;;19.40;60.00;;;;;;5070344;28;20513;-50
2023/12/08 06:59:10;;;;;;;15.73;7.55;;;19.40;59.40;;;;;;5071098;28;20074;-55
2023/12/08 07:01:36;;;;;;;13.35;7.50;;;19.40;59.40;;;;;;5074017;28;20022;-52
2023/12/08 07:04:05;;;;;;;19.63;8.18;;;19.40;59.30;;;;;;5073756;28;20029;-46
2023/12/08 07:06:32;;;;;;;14.18;6.93;;;19.40;59.20;;;;;;5073647;28;20407;-48
2023/12/08 07:08:59;;;;;;;11.52;7.38;;;19.40;59.20;;;;;;5073245;28;20068;-55
2023/12/08 07:11:25;;;;;;;17.45;7.80;;;19.40;59.20;;;;;;5073857;28;20032;-48
2023/12/08 07:13:50;;;;;;;14.93;7.15;;;19.40;59.20;;;;;;5073959;28;20039;-51
2023/12/08 07:16:16;;;;;;;15.20;7.60;;;19.40;59.00;;;;;;5073262;28;20028;-52
2023/12/08 07:18:42;;;;;;;13.35;6.97;;;19.40;59.10;;;;;;5073771;28;20391;-51
2023/12/08 07:21:08;;;;;;;17.95;7.82;;;19.40;59.10;;;;;;5073902;28;20432;-53
2023/12/08 07:23:33;;;;;;;13.88;7.25;;;19.40;58.80;;;;;;5073673;28;20028;-55
2023/12/08 07:26:00;;;;;;;12.50;7.60;;;19.40;59.00;;;;;;5073543;28;20399;-49
2023/12/08 07:28:26;;;;;;;12.90;7.03;;;19.40;59.10;;;;;;5073825;28;20364;-54
2023/12/08 07:30:52;;;;;;;14.30;7.75;;;19.40;59.00;;;;;;5074101;28;20085;-55
2023/12/08 07:33:17;;;;;;;15.40;7.80;;;19.40;58.90;;;;;;5073516;28;20033;-52
2023/12/08 07:35:43;;;;;;;13.23;7.78;;;19.40;59.00;;;;;;5073195;28;20036;-50
2023/12/08 07:38:09;;;;;;;14.93;6.97;;;19.40;58.70;;;;;;5055803;28;20029;-49
2023/12/08 07:40:35;;;;;;;13.30;7.70;;;19.40;58.80;;;;;;5073611;28;20025;-50
2023/12/08 07:43:00;;;;;;;13.57;7.47;;;19.30;59.30;;;;;;5073483;28;20020;-54
2023/12/08 07:45:26;;;;;;;13.07;7.88;;;19.30;58.80;;;;;;5073265;28;20039;-55
2023/12/08 07:47:53;;;;;;;14.88;7.07;;;19.30;58.70;;;;;;5073588;28;20032;-54
2023/12/08 07:50:18;;;;;;;12.63;7.47;;;19.30;58.60;;;;;;5073322;28;20024;-53
2023/12/08 07:52:44;;;;;;;14.50;8.30;;;19.30;58.60;;;;;;5073166;28;20024;-55
2023/12/08 07:55:10;;;;;;;14.18;7.70;;;19.30;58.70;;;;;;5073038;28;20399;-52
2023/12/08 07:57:36;;;;;;;13.60;7.63;;;19.30;58.60;;;;;;5073184;28;20029;-55
2023/12/08 08:00:06;;;;;;;14.38;8.07;;;19.30;58.60;;;;;;5055482;28;20029;-55
2023/12/08 08:02:32;;;;;;;12.77;7.68;;;19.30;58.50;;;;;;5073177;28;20020;-54
2023/12/08 08:04:58;;;;;;;14.20;8.02;;;19.40;58.40;;;;;;5072888;28;20047;-54
2023/12/08 08:07:24;;;;;;;12.27;7.05;;;19.30;58.50;;;;;;5072727;28;20037;-49
2023/12/08 08:09:51;;;;;;;14.00;7.30;;;19.30;58.50;;;;;;5072978;28;20060;-51
2023/12/08 08:12:17;;;;;;;17.75;10.40;;;19.40;58.30;;;;;;5072653;28;20052;-54
2023/12/08 08:14:43;;;;;;;24.67;17.17;;;19.30;57.80;;;;;;5054946;28;20032;-50
2023/12/08 08:17:08;;;;;;;28.70;19.88;;;19.20;51.30;;;;;;5072472;28;20051;-53
2023/12/08 08:19:34;;;;;;;27.83;19.40;;;18.90;49.20;;;;;;5072797;28;20024;-53
2023/12/08 08:22:00;;;;;;;29.27;18.75;;;18.80;49.00;;;;;;5062461;28;20083;-52
2023/12/08 08:24:26;;;;;;;27.10;17.10;;;18.90;53.10;;;;;;5053094;28;20079;-52
2023/12/08 08:26:52;;;;;;;25.60;17.50;;;19.00;52.00;;;;;;5057193;28;20100;-51
2023/12/08 08:29:18;;;;;;;26.67;16.23;;;19.20;56.80;;;;;;5062301;28;20104;-49
2023/12/08 08:31:44;;;;;;;23.05;15.38;;;19.50;53.20;;;;;;5063229;28;20024;-52
2023/12/08 08:34:10;;;;;;;41.38;16.92;;;19.60;54.30;;;;;;5061946;28;20051;-49
2023/12/08 08:36:35;;;;;;;42.58;16.85;;;19.70;55.70;;;;;;5065886;28;20028;-55
2023/12/08 08:39:03;;;;;;;23.05;15.32;;;19.80;54.50;;;;;;5058687;28;20020;-49
2023/12/08 08:41:29;;;;;;;30.00;15.10;;;19.80;53.70;;;;;;5058543;28;20035;-54
2023/12/08 08:43:55;;;;;;;34.83;14.82;;;19.90;54.50;;;;;;5040364;28;20761;-54
2023/12/08 08:46:21;;;;;;;31.05;14.45;;;19.90;53.80;;;;;;5065718;28;20027;-51
2023/12/08 08:48:47;;;;;;;32.38;13.80;;;20.00;54.40;;;;;;5058676;28;20025;-48
2023/12/08 08:51:14;;;;;;;27.10;13.15;;;20.00;55.40;;;;;;5058978;28;20028;-55
2023/12/08 08:53:40;;;;;;;22.98;13.23;;;20.00;55.70;;;;;;5047968;28;20036;-51
2023/12/08 08:56:06;;;;;;;26.52;13.05;;;20.00;56.00;;;;;;5058876;28;20025;-53
2023/12/08 08:58:34;;;;;;;23.05;12.63;;;20.00;56.00;;;;;;5061360;28;20615;-49
2023/12/08 09:01:00;;;;;;;21.75;12.05;;;20.00;56.10;;;;;;5064562;28;20377;-48
2023/12/08 09:03:26;;;;;;;23.15;11.82;;;20.10;56.20;;;;;;5058094;28;20036;-52
2023/12/08 09:05:51;;;;;;;19.70;11.95;;;20.10;56.10;;;;;;5056679;28;20028;-49
2023/12/08 09:08:17;;;;;;;24.50;11.65;;;20.10;56.10;;;;;;5059968;28;20021;-52
2023/12/08 09:10:45;;;;;;;19.58;10.98;;;20.00;55.80;;;;;;5066012;28;20064;-50
2023/12/08 09:13:12;;;;;;;18.83;11.10;;;20.10;56.00;;;;;;5057540;28;20017;-50
2023/12/08 09:15:38;;;;;;;21.30;10.30;;;20.10;55.80;;;;;;5063792;28;20082;-50
2023/12/08 09:18:05;;;;;;;18.10;10.98;;;20.10;55.80;;;;;;5057566;28;20021;-49
2023/12/08 09:20:31;;;;;;;18.65;10.85;;;20.10;55.90;;;;;;5064075;28;20479;-51
2023/12/08 09:22:57;;;;;;;22.33;9.93;;;20.10;56.00;;;;;;5057639;28;20039;-49
2023/12/08 09:25:23;;;;;;;17.88;9.73;;;20.10;56.00;;;;;;5062825;28;20056;-55
2023/12/08 09:27:49;;;;;;;15.70;10.23;;;20.10;56.00;;;;;;5040377;28;20079;-49
2023/12/08 09:30:15;;;;;;;16.27;9.90;;;20.10;56.00;;;;;;5061733;28;20025;-49
2023/12/08 09:32:40;;;;;;;17.67;9.82;;;20.00;56.10;;;;;;5058802;28;20036;-51
2023/12/08 09:35:06;;;;;;;17.23;10.10;;;20.10;56.00;;;;;;5059770;28;20380;-51
2023/12/08 09:37:32;;;;;;;13.90;9.55;;;20.10;56.00;;;;;;5060079;28;20426;-46
2023/12/08 09:39:58;;;;;;;15.38;10.07;;;20.10;56.00;;;;;;5058601;28;20078;-53
2023/12/08 09:42:41;;;;;;;17.83;10.02;;;20.00;56.00;;;;;;5060947;28;20053;-52
2023/12/08 09:45:12;;;;;;;18.65;9.77;;;20.10;56.10;;;;;;5054146;28;20119;-52
2023/12/08 09:47:41;;;;;;;15.05;9.23;;;20.00;55.90;;;;;;5060726;28;20025;-49
2023/12/08 09:50:09;;;;;;;14.05;8.35;;;20.00;56.20;;;;;;5060808;28;20100;-48
2023/12/08 09:52:35;;;;;;;15.43;9.20;;;20.10;55.90;;;;;;5058668;28;20028;-53
2023/12/08 09:55:03;;;;;;;17.77;9.20;;;20.00;55.90;;;;;;5060606;28;20039;-55
2023/12/08 09:57:30;;;;;;;14.88;9.02;;;20.00;56.00;;;;;;5063302;28;20032;-48
2023/12/08 09:59:59;;;;;;;14.82;8.95;;;20.00;56.00;;;;;;5062516;28;20452;-53
2023/12/08 10:02:26;;;;;;;16.63;9.38;;;20.00;56.20;;;;;;5062028;28;20028;-52
2023/12/08 10:04:52;;;;;;;17.33;9.05;;;20.00;56.00;;;;;;5059263;28;20031;-49
2023/12/08 10:07:19;;;;;;;11.73;8.02;;;20.00;55.80;;;;;;5058980;28;20032;-47
2023/12/08 10:09:45;;;;;;;13.52;8.65;;;20.00;56.30;;;;;;5058336;28;20043;-51
2023/12/08 10:12:10;;;;;;;16.58;9.15;;;20.00;56.00;;;;;;5058507;28;20033;-54
2023/12/08 10:14:54;;;;;;;16.55;8.13;;;20.00;56.00;;;;;;5059140;28;20089;-49
2023/12/08 10:17:20;;;;;;;13.10;7.93;;;20.00;55.70;;;;;;5058823;28;20052;-49
2023/12/08 10:19:46;;;;;;;17.08;8.65;;;20.00;55.60;;;;;;5058051;28;20456;-54
2023/12/08 10:22:12;;;;;;;14.80;8.40;;;20.00;56.20;;;;;;5058109;28;20378;-51
2023/12/08 10:24:40;;;;;;;18.63;8.98;;;20.00;55.90;;;;;;5058627;28;20021;-49
2023/12/08 10:27:09;;;;;;;14.52;8.23;;;20.00;56.10;;;;;;5056357;28;20400;-52
2023/12/08 10:29:35;;;;;;;18.92;8.82;;;20.00;56.20;;;;;;5059325;28;20043;-48
2023/12/08 10:32:04;;;;;;;14.68;8.25;;;20.00;56.10;;;;;;5055696;28;20387;-50
2023/12/08 10:34:31;;;;;;;15.63;8.55;;;20.00;56.00;;;;;;5060651;28;20547;-51
2023/12/08 10:36:57;;;;;;;17.20;8.18;;;20.00;56.20;;;;;;5058728;28;20492;-49
2023/12/08 10:39:24;;;;;;;13.07;7.88;;;20.00;56.10;;;;;;5064271;28;20036;-50
2023/12/08 10:41:50;;;;;;;15.88;8.55;;;20.00;55.80;;;;;;5057827;28;20047;-47
2023/12/08 10:44:23;;;;;;;14.75;8.60;;;20.00;55.60;;;;;;5063943;28;20032;-52
2023/12/08 10:46:49;;;;;;;11.63;7.63;;;20.00;55.80;;;;;;5050016;28;20458;-50
2023/12/08 10:49:19;;;;;;;14.50;8.40;;;20.00;56.00;;;;;;5060404;28;20033;-52
2023/12/08 10:51:49;;;;;;;14.80;8.38;;;20.00;55.80;;;;;;5062782;28;20029;-53
2023/12/08 10:54:18;;;;;;;;;;;20.00;55.90;;;;;;5064304;28;20027;-52
2023/12/08 10:56:45;;;;;;;12.93;8.00;;;20.00;55.80;;;;;;5056652;28;19913;-47
2023/12/08 10:59:15;;;;;;;13.43;8.07;;;20.00;55.80;;;;;;5063831;28;20021;-52
2023/12/08 11:01:41;;;;;;;;;;;19.90;55.80;;;;;;5057077;28;20029;-49
2023/12/08 11:04:10;;;;;;;13.70;8.23;;;19.90;55.60;;;;;;5063669;28;19950;-50
2023/12/08 11:07:01;;;;;;;12.80;7.90;;;20.00;55.80;;;;;;5037580;28;20408;-46
2023/12/08 11:09:34;;;;;;;15.02;8.55;;;19.90;55.50;;;;;;5045852;28;20032;-51
2023/12/08 11:12:04;;;;;;;14.45;8.07;;;19.90;55.80;;;;;;5056588;28;20021;-49
2023/12/08 11:14:41;;;;;;;16.92;8.60;;;19.90;55.80;;;;;;5063379;28;20028;-55
2023/12/08 11:17:35;;;;;;;14.32;8.25;;;19.90;55.70;;;;;;5057015;28;20028;-48
2023/12/08 11:20:01;;;;;;;12.68;7.80;;;19.90;55.60;;;;;;5049159;28;20037;-56
2023/12/08 11:22:27;;;;;;;13.32;7.43;;;20.00;55.70;;;;;;5061415;28;20040;-54
2023/12/08 11:24:56;;;;;;;13.43;8.10;;;19.90;55.60;;;;;;5062963;28;20029;-55
2023/12/08 11:27:40;;;;;;;14.63;8.13;;;20.00;55.90;;;;;;5063392;28;20024;-53
2023/12/08 11:30:16;;;;;;;15.43;7.22;;;20.00;56.00;;;;;;5056817;28;20111;-52
2023/12/08 11:33:01;;;;;;;12.70;6.90;;;20.00;55.70;;;;;;5062664;28;20103;-53
2023/12/08 11:35:29;;;;;;;12.10;7.40;;;19.90;55.70;;;;;;5062968;28;20526;-56
2023/12/08 11:37:55;;;;;;;14.60;7.57;;;20.00;55.70;;;;;;5062319;28;20032;-54
2023/12/08 11:40:21;;;;;;;13.23;8.13;;;20.00;55.70;;;;;;5063080;28;20027;-55
2023/12/08 11:42:47;;;;;;;14.60;8.27;;;20.00;55.50;;;;;;5061740;28;20036;-54
2023/12/08 11:45:13;;;;;;;13.98;8.18;;;19.90;55.40;;;;;;5061788;28;20365;-56
2023/12/08 11:47:41;;;;;;;13.73;7.72;;;20.00;55.20;;;;;;5062641;28;20030;-52
2023/12/08 11:50:10;;;;;;;22.67;8.68;;;19.90;55.60;;;;;;5044797;28;20029;-52
2023/12/08 11:52:37;;;;;;;12.38;7.97;;;19.90;55.40;;;;;;5060988;28;20025;-52
2023/12/08 11:55:19;;;;;;;14.88;7.45;;;19.90;55.10;;;;;;5062354;28;20028;-54
2023/12/08 11:57:54;;;;;;;12.77;7.70;;;19.90;55.10;;;;;;5060671;28;20043;-55
2023/12/08 12:00:21;;;;;;;17.23;7.32;;;19.90;55.10;;;;;;5062858;28;20028;-55
2023/12/08 12:02:48;;;;;;;12.38;7.60;;;19.90;55.00;;;;;;5060259;28;20079;-55
2023/12/08 12:05:15;;;;;;;14.57;7.88;;;19.90;55.30;;;;;;5061787;28;20023;-55
2023/12/08 12:07:46;;;;;;;12.13;7.20;;;19.90;55.00;;;;;;5059282;28;20523;-51
2023/12/08 12:10:15;;;;;;;14.02;7.55;;;19.90;55.30;;;;;;5062247;28;20025;-53
2023/12/08 12:12:44;;;;;;;12.82;7.13;;;19.90;55.40;;;;;;5059484;28;20033;-55
2023/12/08 12:15:11;;;;;;;12.45;7.25;;;19.90;55.80;;;;;;5061517;28;20032;-54
2023/12/08 12:17:38;;;;;;;12.93;7.53;;;19.90;55.80;;;;;;5059071;28;20516;-52
2023/12/08 12:20:05;;;;;;;14.85;8.15;;;19.90;55.70;;;;;;5062601;28;20021;-55
2023/12/08 12:22:30;;;;;;;15.45;7.55;;;19.90;55.60;;;;;;5058980;28;20028;-51
2023/12/08 12:24:56;;;;;;;12.40;7.05;;;20.00;55.50;;;;;;5062065;28;20017;-47
2023/12/08 12:27:22;;;;;;;10.85;7.10;;;20.00;55.70;;;;;;5059046;28;20113;-52
2023/12/08 12:29:48;;;;;;;13.57;7.43;;;20.00;55.60;;;;;;5060635;28;20064;-53
2023/12/08 12:32:14;;;;;;;18.33;7.32;;;20.00;55.60;;;;;;5060108;28;20107;-54